Aviation Digital Data Service (ADDS)

Output produced by METARs form (0023 UTC 23 September 2017)
found at http://aviationweather.gov/adds/metars/
 
KISO 222331Z 2300/2324 VRB04KT P6SM FEW040 
     FM230500 00000KT 5SM BR FEW050 
     FM230700 00000KT 1SM BR FEW050 
     FM231300 04006KT P6SM FEW250 AMD LTD TO CLD VIS AND WIND